createdAt,value
2018-03-04T00:02:09.223Z,91.60
2018-03-04T00:04:37.275Z,91.40
2018-03-04T00:07:06.172Z,91.30
2018-03-04T00:09:35.010Z,91.40
2018-03-04T00:12:02.691Z,91.40
2018-03-04T00:14:30.364Z,91.30
2018-03-04T00:16:58.408Z,91.40
2018-03-04T00:19:26.545Z,91.40
2018-03-04T00:21:54.635Z,91.80
2018-03-04T00:24:22.347Z,91.60
2018-03-04T00:26:50.413Z,91.60
2018-03-04T00:29:18.054Z,91.60
2018-03-04T00:31:46.141Z,91.70
2018-03-04T00:34:13.835Z,91.90
2018-03-04T00:36:41.505Z,91.90
2018-03-04T00:39:09.463Z,91.80
2018-03-04T00:41:37.531Z,91.80
2018-03-04T00:44:06.400Z,92.20
2018-03-04T00:46:34.131Z,92.10
2018-03-04T00:49:01.943Z,92.40
2018-03-04T00:51:29.643Z,92.40
2018-03-04T00:53:57.624Z,92.30
2018-03-04T00:56:25.682Z,92.30
2018-03-04T00:58:53.328Z,92.40
2018-03-04T01:01:20.944Z,92.30
2018-03-04T01:03:48.817Z,92.30
2018-03-04T01:06:16.816Z,92.20
2018-03-04T01:08:44.744Z,92.30
2018-03-04T01:11:12.409Z,92.40
2018-03-04T01:13:40.112Z,92.50
2018-03-04T01:16:07.839Z,92.50
2018-03-04T01:18:35.845Z,92.60
2018-03-04T01:21:03.477Z,92.70
2018-03-04T01:23:31.121Z,92.60
2018-03-04T01:25:58.764Z,92.50
2018-03-04T01:28:26.399Z,92.50
2018-03-04T01:30:54.795Z,92.60
2018-03-04T01:33:22.428Z,92.60
2018-03-04T01:35:50.788Z,92.70
2018-03-04T01:38:18.380Z,92.70
2018-03-04T01:40:46.776Z,92.70
2018-03-04T01:43:14.362Z,92.70
2018-03-04T01:45:41.987Z,92.50
2018-03-04T01:48:09.592Z,92.70
2018-03-04T01:50:37.223Z,92.60
2018-03-04T01:53:04.831Z,92.60
2018-03-04T01:55:32.449Z,92.60
2018-03-04T01:58:00.094Z,92.80
2018-03-04T02:00:27.694Z,92.70
2018-03-04T02:02:55.341Z,92.70
2018-03-04T02:05:22.962Z,92.70
2018-03-04T02:07:50.593Z,92.80
2018-03-04T02:10:18.182Z,92.80
2018-03-04T02:12:45.832Z,92.80
2018-03-04T02:15:14.209Z,92.90
2018-03-04T02:17:42.619Z,92.90
2018-03-04T02:20:10.241Z,92.90
2018-03-04T02:22:38.599Z,93.20
2018-03-04T02:25:06.223Z,93.10
2018-03-04T02:27:33.843Z,93.00
2018-03-04T02:30:02.291Z,93.20
2018-03-04T02:32:29.889Z,93.10
2018-03-04T02:34:58.289Z,93.30
2018-03-04T02:37:25.939Z,93.30
2018-03-04T02:39:53.539Z,93.40
2018-03-04T02:42:21.165Z,93.30
2018-03-04T02:44:48.759Z,93.30
2018-03-04T02:47:16.403Z,93.40
2018-03-04T02:49:43.996Z,93.40
2018-03-04T02:52:11.646Z,93.30
2018-03-04T02:54:39.238Z,93.40
2018-03-04T02:57:07.605Z,93.60
2018-03-04T02:59:35.232Z,93.60
2018-03-04T03:02:03.097Z,93.60
2018-03-04T03:04:30.730Z,93.60
2018-03-04T03:06:58.325Z,93.60
2018-03-04T03:09:25.966Z,93.60
2018-03-04T03:11:53.583Z,93.50
2018-03-04T03:14:21.952Z,93.70
2018-03-04T03:16:49.584Z,93.70
2018-03-04T03:19:17.190Z,93.60
2018-03-04T03:21:45.589Z,93.70
2018-03-04T03:24:13.194Z,93.70
2018-03-04T03:26:40.823Z,93.70
2018-03-04T03:29:08.412Z,93.60
2018-03-04T03:31:36.037Z,93.70
2018-03-04T03:34:03.639Z,93.80
2018-03-04T03:36:31.228Z,93.80
2018-03-04T03:38:59.630Z,93.90
2018-03-04T03:41:27.271Z,93.90
2018-03-04T03:43:55.682Z,94.20
2018-03-04T03:46:23.261Z,93.90
2018-03-04T03:48:50.884Z,93.80
2018-03-04T03:51:18.480Z,94.10
2018-03-04T03:53:46.115Z,94.10
2018-03-04T03:56:13.714Z,94.10
2018-03-04T03:58:41.326Z,94.00
2018-03-04T04:01:09.117Z,94.20
2018-03-04T04:03:36.742Z,94.30
2018-03-04T04:06:04.385Z,94.20
2018-03-04T04:08:32.755Z,94.30
2018-03-04T04:11:01.214Z,94.70
2018-03-04T04:13:28.817Z,94.30
2018-03-04T04:15:56.421Z,94.20
2018-03-04T04:18:24.043Z,94.20
2018-03-04T04:20:51.636Z,94.30
2018-03-04T04:23:19.270Z,94.40
2018-03-04T04:25:46.876Z,94.40
2018-03-04T04:28:14.572Z,94.30
2018-03-04T04:30:42.937Z,94.50
2018-03-04T04:33:11.300Z,94.50
2018-03-04T04:35:38.931Z,94.40
2018-03-04T04:38:06.662Z,94.50
2018-03-04T04:40:34.290Z,94.40
2018-03-04T04:43:02.120Z,94.50
2018-03-04T04:45:29.748Z,94.60
2018-03-04T04:47:57.346Z,94.50
2018-03-04T04:50:24.981Z,94.60
2018-03-04T04:52:52.566Z,94.50
2018-03-04T04:55:20.184Z,94.50
2018-03-04T04:57:47.809Z,94.50
2018-03-04T05:00:15.404Z,94.60
2018-03-04T05:02:43.066Z,94.60
2018-03-04T05:05:10.686Z,94.70
2018-03-04T05:07:38.343Z,94.60
2018-03-04T05:10:05.953Z,94.70
2018-03-04T05:12:33.585Z,94.70
2018-03-04T05:15:01.949Z,94.50
2018-03-04T05:17:29.542Z,94.70
2018-03-04T05:19:57.163Z,94.90
2018-03-04T05:22:24.773Z,94.80
2018-03-04T05:24:52.426Z,94.80
2018-03-04T05:27:20.044Z,94.80
2018-03-04T05:29:47.664Z,94.80
2018-03-04T05:32:15.244Z,94.80
2018-03-04T05:34:42.879Z,94.90
2018-03-04T05:37:10.572Z,94.80
2018-03-04T05:39:38.180Z,94.80
2018-03-04T05:42:06.637Z,94.70
2018-03-04T05:44:34.229Z,94.70
2018-03-04T05:47:01.848Z,94.80
2018-03-04T05:49:29.452Z,94.80
2018-03-04T05:51:57.101Z,94.60
2018-03-04T05:54:25.455Z,94.80
2018-03-04T05:56:53.871Z,94.70
2018-03-04T05:59:21.454Z,94.70
2018-03-04T06:01:49.065Z,94.80
2018-03-04T06:04:17.457Z,94.70
2018-03-04T06:06:45.070Z,94.70
2018-03-04T06:09:12.705Z,94.60
2018-03-04T06:11:40.300Z,94.60
2018-03-04T06:14:07.915Z,94.50
2018-03-04T06:16:35.549Z,94.40
2018-03-04T06:19:03.976Z,94.10
2018-03-04T06:21:31.676Z,94.10
2018-03-04T06:23:59.289Z,93.90
2018-03-04T06:26:26.939Z,93.90
2018-03-04T06:28:54.557Z,93.90
2018-03-04T06:31:22.137Z,93.60
2018-03-04T06:33:50.519Z,93.50
2018-03-04T06:36:18.887Z,93.50
2018-03-04T06:38:47.285Z,93.20
2018-03-04T06:41:14.870Z,93.20
2018-03-04T06:43:42.502Z,93.10
2018-03-04T06:46:10.092Z,93.00
2018-03-04T06:48:37.751Z,93.00
2018-03-04T06:51:05.377Z,93.00
2018-03-04T06:53:33.008Z,92.80
2018-03-04T06:56:00.623Z,92.50
2018-03-04T06:58:28.257Z,92.60
2018-03-04T07:00:55.900Z,92.30
2018-03-04T07:03:24.302Z,92.00
2018-03-04T07:05:51.945Z,92.00
2018-03-04T07:08:20.362Z,91.70
2018-03-04T07:10:47.986Z,91.70
2018-03-04T07:13:16.436Z,91.70
2018-03-04T07:15:44.102Z,91.70
2018-03-04T07:18:11.906Z,91.80
2018-03-04T07:20:39.573Z,91.60
2018-03-04T07:23:07.190Z,91.50
2018-03-04T07:25:34.870Z,91.50
2018-03-04T07:28:03.257Z,91.00
2018-03-04T07:30:31.680Z,91.20
2018-03-04T07:33:00.082Z,91.20
2018-03-04T07:35:27.749Z,91.20
2018-03-04T07:37:55.370Z,91.00
2018-03-04T07:40:22.989Z,90.80
2018-03-04T07:42:51.404Z,90.60
2018-03-04T07:45:19.014Z,90.60
2018-03-04T07:47:46.783Z,90.40
2018-03-04T07:50:14.438Z,90.20
2018-03-04T07:52:42.081Z,90.20
2018-03-04T07:55:09.728Z,90.10
2018-03-04T07:57:37.405Z,89.50
2018-03-04T08:00:05.095Z,90.10
2018-03-04T08:02:32.733Z,89.60
2018-03-04T08:05:00.402Z,89.30
2018-03-04T08:07:28.980Z,89.10
2018-03-04T08:09:56.743Z,89.00
2018-03-04T08:12:24.370Z,88.50
2018-03-04T08:14:52.041Z,87.10
2018-03-04T08:17:19.665Z,87.20
2018-03-04T08:19:47.292Z,86.60
2018-03-04T08:22:14.951Z,85.60
2018-03-04T08:24:42.596Z,85.50
2018-03-04T08:27:22.054Z,85.20
2018-03-04T08:29:53.100Z,84.30
2018-03-04T08:32:21.646Z,83.50
2018-03-04T08:34:49.323Z,83.40
2018-03-04T08:37:17.067Z,82.20
2018-03-04T08:39:44.716Z,82.90
2018-03-04T08:42:12.352Z,80.90
2018-03-04T08:44:41.797Z,80.60
2018-03-04T08:47:09.473Z,80.60
2018-03-04T08:49:37.588Z,80.20
2018-03-04T08:52:05.243Z,79.90
2018-03-04T08:54:33.632Z,79.00
2018-03-04T08:57:01.271Z,79.00
2018-03-04T08:59:29.713Z,78.60
2018-03-04T09:01:57.337Z,78.60
2018-03-04T09:04:25.096Z,76.70
2018-03-04T09:06:52.780Z,76.20
2018-03-04T09:09:21.205Z,76.40
2018-03-04T09:11:48.909Z,77.10
2018-03-04T09:14:16.577Z,76.30
2018-03-04T09:16:44.269Z,75.90
2018-03-04T09:19:12.735Z,75.30
2018-03-04T09:21:40.390Z,74.90
2018-03-04T09:24:08.054Z,75.60
2018-03-04T09:26:35.690Z,75.40
2018-03-04T09:29:03.760Z,75.50
2018-03-04T09:31:31.388Z,74.90
2018-03-04T09:33:59.809Z,73.90
2018-03-04T09:36:27.431Z,73.90
2018-03-04T09:38:55.855Z,72.90
2018-03-04T09:41:23.466Z,72.90
2018-03-04T09:43:51.856Z,72.90
2018-03-04T09:46:19.516Z,72.20
2018-03-04T09:48:47.886Z,70.60
2018-03-04T09:51:16.310Z,69.50
2018-03-04T09:53:43.927Z,69.30
2018-03-04T09:56:12.357Z,70.00
2018-03-04T09:58:39.977Z,70.60
2018-03-04T10:01:08.361Z,67.60
2018-03-04T10:03:36.774Z,67.40
2018-03-04T10:06:04.401Z,66.70
2018-03-04T10:08:32.016Z,64.80
2018-03-04T10:10:59.614Z,64.70
2018-03-04T10:13:28.004Z,63.10
2018-03-04T10:15:55.624Z,63.10
2018-03-04T10:18:23.276Z,64.70
2018-03-04T10:20:50.882Z,62.40
2018-03-04T10:23:20.059Z,61.20
2018-03-04T10:25:48.445Z,59.80
2018-03-04T10:28:16.980Z,59.90
2018-03-04T10:30:44.602Z,59.90
2018-03-04T10:33:12.273Z,60.00
2018-03-04T10:35:39.912Z,57.60
2018-03-04T10:38:08.395Z,56.90
2018-03-04T10:40:36.777Z,56.60
2018-03-04T10:43:05.440Z,56.70
2018-03-04T10:45:33.831Z,55.40
2018-03-04T10:48:02.689Z,54.50
2018-03-04T10:50:30.292Z,54.40
2018-03-04T10:53:00.377Z,54.00
2018-03-04T10:55:28.880Z,53.10
2018-03-04T10:57:56.529Z,52.90
2018-03-04T11:00:24.965Z,54.10
2018-03-04T11:02:52.640Z,54.10
2018-03-04T11:05:20.454Z,52.10
2018-03-04T11:07:48.947Z,52.00
2018-03-04T11:10:21.307Z,50.70
2018-03-04T11:12:49.752Z,51.90
2018-03-04T11:18:13.061Z,50.50
2018-03-04T11:20:40.687Z,49.60
2018-03-04T11:23:09.421Z,51.00
2018-03-04T11:25:37.107Z,49.80
2018-03-04T11:28:05.800Z,47.80
2018-03-04T11:30:33.445Z,49.50
2018-03-04T11:33:03.948Z,50.00
2018-03-04T11:35:31.806Z,48.90
2018-03-04T11:38:00.240Z,48.10
2018-03-04T11:40:28.064Z,47.60
2018-03-04T11:42:55.937Z,49.30
2018-03-04T11:45:23.610Z,48.00
2018-03-04T11:47:51.240Z,47.00
2018-03-04T11:50:18.832Z,47.70
2018-03-04T11:52:46.696Z,47.00
2018-03-04T11:55:15.083Z,46.60
2018-03-04T11:57:43.853Z,46.60
2018-03-04T12:00:11.482Z,46.50
2018-03-04T12:02:39.129Z,49.40
2018-03-04T12:05:10.603Z,46.70
2018-03-04T12:07:38.324Z,46.30
2018-03-04T12:10:05.960Z,45.30
2018-03-04T12:12:33.610Z,45.40
2018-03-04T12:15:02.052Z,45.70
2018-03-04T12:17:29.688Z,45.70
2018-03-04T12:19:57.323Z,45.80
2018-03-04T12:22:24.974Z,45.80
2018-03-04T12:24:52.772Z,45.20
2018-03-04T12:27:20.403Z,45.20
2018-03-04T12:29:48.131Z,44.50
2018-03-04T12:32:15.769Z,45.60
2018-03-04T12:34:43.401Z,44.20
2018-03-04T12:37:11.710Z,43.80
2018-03-04T12:39:39.361Z,44.80
2018-03-04T12:42:07.790Z,43.00
2018-03-04T12:44:35.444Z,43.10
2018-03-04T12:47:03.241Z,43.40
2018-03-04T12:49:30.856Z,43.00
2018-03-04T12:51:58.525Z,43.50
2018-03-04T12:54:26.182Z,42.80
2018-03-04T12:56:53.838Z,43.00
2018-03-04T12:59:21.496Z,42.00
2018-03-04T13:01:49.142Z,40.90
2018-03-04T13:04:17.585Z,41.10
2018-03-04T13:06:45.975Z,42.40
2018-03-04T13:09:13.649Z,42.40
2018-03-04T13:11:41.429Z,41.70
2018-03-04T13:14:09.864Z,41.30
2018-03-04T13:16:38.423Z,41.30
2018-03-04T13:19:06.782Z,40.50
2018-03-04T13:21:34.660Z,40.30
2018-03-04T13:24:02.424Z,40.70
2018-03-04T13:26:30.054Z,41.50
2018-03-04T13:28:58.433Z,40.90
2018-03-04T13:31:26.892Z,40.80
2018-03-04T13:33:54.479Z,40.70
2018-03-04T13:36:22.066Z,40.90
2018-03-04T13:38:49.712Z,40.20
2018-03-04T13:41:17.334Z,40.00
2018-03-04T13:43:44.964Z,40.20
2018-03-04T13:46:12.554Z,40.30
2018-03-04T13:48:40.172Z,40.20
2018-03-04T13:51:07.772Z,40.00
2018-03-04T13:53:35.392Z,40.60
2018-03-04T13:56:03.102Z,41.20
2018-03-04T13:58:30.737Z,40.70
2018-03-04T14:00:58.314Z,41.10
2018-03-04T14:03:25.922Z,41.20
2018-03-04T14:05:53.541Z,40.30
2018-03-04T14:08:21.120Z,40.70
2018-03-04T14:10:49.504Z,41.60
2018-03-04T14:13:17.852Z,41.20
2018-03-04T14:15:45.480Z,41.10
2018-03-04T14:18:13.060Z,43.20
2018-03-04T14:20:40.714Z,42.00
2018-03-04T14:23:08.372Z,41.80
2018-03-04T14:25:35.981Z,42.00
2018-03-04T14:28:03.738Z,42.60
2018-03-04T14:30:32.097Z,43.50
2018-03-04T14:32:59.721Z,43.50
2018-03-04T14:35:27.308Z,43.90
2018-03-04T14:37:54.908Z,42.90
2018-03-04T14:40:22.538Z,44.10
2018-03-04T14:42:50.136Z,45.20
2018-03-04T14:45:17.752Z,46.30
2018-03-04T14:47:45.357Z,45.60
2018-03-04T14:50:12.982Z,45.70
2018-03-04T14:52:47.243Z,46.60
2018-03-04T14:55:14.923Z,46.30
2018-03-04T14:57:42.528Z,45.80
2018-03-04T15:00:10.889Z,46.60
2018-03-04T15:02:38.500Z,46.50
2018-03-04T15:05:06.126Z,45.40
2018-03-04T15:07:34.552Z,45.20
2018-03-04T15:10:02.294Z,45.20
2018-03-04T15:12:29.949Z,45.30
2018-03-04T15:14:57.550Z,44.70
2018-03-04T15:17:25.148Z,45.40
2018-03-04T15:19:53.583Z,45.40
2018-03-04T15:22:21.250Z,45.30
2018-03-04T15:24:48.937Z,44.10
2018-03-04T15:27:17.334Z,41.40
2018-03-04T15:29:45.816Z,41.70
2018-03-04T15:32:13.442Z,41.40
2018-03-04T15:34:41.084Z,38.60
2018-03-04T15:37:08.684Z,38.60
2018-03-04T15:39:37.078Z,35.90
2018-03-04T15:42:04.774Z,35.90
2018-03-04T15:44:32.419Z,36.20
2018-03-04T15:47:00.158Z,35.30
2018-03-04T15:49:28.541Z,36.50
2018-03-04T15:51:56.199Z,36.50
2018-03-04T15:54:24.565Z,36.90
2018-03-04T15:56:52.931Z,36.70
2018-03-04T15:59:20.545Z,36.70
2018-03-04T16:01:48.143Z,36.90
2018-03-04T16:04:15.784Z,38.40
2018-03-04T16:06:43.389Z,39.10
2018-03-04T16:09:11.793Z,40.20
2018-03-04T16:11:39.442Z,40.20
2018-03-04T16:14:07.090Z,40.50
2018-03-04T16:16:35.934Z,41.60
2018-03-04T16:19:03.533Z,41.50
2018-03-04T16:21:31.936Z,45.20
2018-03-04T16:23:59.943Z,45.20
2018-03-04T16:26:27.567Z,45.80
2018-03-04T16:28:55.290Z,48.90
2018-03-04T16:31:23.170Z,49.10
2018-03-04T16:33:51.662Z,51.30
2018-03-04T16:36:20.166Z,51.70
2018-03-04T16:38:47.890Z,51.60
2018-03-04T16:41:15.623Z,52.50
2018-03-04T16:43:43.397Z,53.50
2018-03-04T16:46:10.989Z,54.60
2018-03-04T16:48:39.406Z,56.80
2018-03-04T16:51:07.165Z,56.80
2018-03-04T16:53:35.666Z,57.60
2018-03-04T16:56:03.266Z,58.20
2018-03-04T16:58:31.651Z,59.50
2018-03-04T17:00:59.303Z,59.50
2018-03-04T17:03:27.686Z,61.10
2018-03-04T17:05:56.128Z,61.80
2018-03-04T17:08:23.723Z,61.80
2018-03-04T17:10:55.981Z,63.20
2018-03-04T17:13:29.634Z,63.00
2018-03-04T17:16:02.761Z,64.40
2018-03-04T17:18:39.046Z,63.60
2018-03-04T17:21:10.192Z,64.20
2018-03-04T17:23:42.842Z,65.10
2018-03-04T17:26:10.980Z,65.00
2018-03-04T17:28:38.641Z,65.50
2018-03-04T17:31:06.468Z,65.60
2018-03-04T17:33:35.764Z,66.20
2018-03-04T17:36:04.245Z,66.50
2018-03-04T17:38:32.678Z,66.80
2018-03-04T17:41:00.284Z,66.70
2018-03-04T17:43:28.031Z,67.30
2018-03-04T17:45:57.896Z,67.50
2018-03-04T17:48:26.574Z,67.80
2018-03-04T17:51:14.653Z,68.10
2018-03-04T17:53:55.670Z,68.30
2018-03-04T17:56:23.426Z,68.40
2018-03-04T17:58:51.090Z,68.60
2018-03-04T18:01:18.721Z,68.80
2018-03-04T18:03:46.315Z,69.00
2018-03-04T18:06:13.928Z,68.80
2018-03-04T18:08:41.625Z,68.90
2018-03-04T18:11:10.093Z,68.80
2018-03-04T18:13:37.748Z,68.80
2018-03-04T18:16:05.393Z,69.00
2018-03-04T18:18:33.110Z,68.70
2018-03-04T18:21:00.762Z,68.30
2018-03-04T18:23:28.504Z,67.60
2018-03-04T18:25:56.137Z,67.70
2018-03-04T18:28:23.762Z,67.50
2018-03-04T18:30:52.738Z,66.80
2018-03-04T18:33:51.181Z,66.80
2018-03-04T18:36:19.915Z,66.30
2018-03-04T18:38:47.510Z,66.40
2018-03-04T18:41:15.878Z,66.90
2018-03-04T18:43:44.320Z,67.30
2018-03-04T18:46:11.945Z,67.20
2018-03-04T18:48:39.560Z,66.80
2018-03-04T18:51:07.181Z,67.70
2018-03-04T18:53:34.859Z,67.70
2018-03-04T18:56:02.705Z,67.20
2018-03-04T18:58:30.284Z,67.50
2018-03-04T19:00:57.944Z,67.40
2018-03-04T19:03:25.552Z,67.30
2018-03-04T19:05:53.955Z,67.90
2018-03-04T19:08:21.537Z,67.90
2018-03-04T19:10:49.177Z,67.60
2018-03-04T19:13:16.758Z,67.50
2018-03-04T19:15:44.346Z,67.30
2018-03-04T19:18:11.953Z,68.00
2018-03-04T19:20:39.536Z,68.20
2018-03-04T19:23:07.927Z,67.90
2018-03-04T19:25:35.535Z,67.90
2018-03-04T19:28:03.222Z,68.00
2018-03-04T19:30:30.819Z,67.70
2018-03-04T19:32:58.462Z,68.00
2018-03-04T19:35:26.101Z,68.00
2018-03-04T19:37:54.078Z,68.70
2018-03-04T19:40:21.772Z,68.90
2018-03-04T19:42:49.378Z,68.70
2018-03-04T19:45:17.009Z,69.10
2018-03-04T19:47:45.406Z,69.40
2018-03-04T19:50:12.992Z,69.40
2018-03-04T19:52:40.614Z,69.60
2018-03-04T19:55:08.998Z,69.90
2018-03-04T19:57:37.405Z,69.90
2018-03-04T20:00:05.156Z,69.90
2018-03-04T20:02:33.598Z,70.30
2018-03-04T20:05:02.424Z,71.40
2018-03-04T20:07:30.067Z,70.80
2018-03-04T20:09:58.449Z,71.50
2018-03-04T20:12:26.069Z,71.50
2018-03-04T20:14:53.694Z,71.30
2018-03-04T20:17:21.283Z,71.80
2018-03-04T20:19:48.924Z,71.80
2018-03-04T20:22:16.556Z,71.90
2018-03-04T20:24:44.144Z,71.90
2018-03-04T20:27:11.800Z,72.20
2018-03-04T20:29:39.400Z,71.90
2018-03-04T20:32:07.034Z,72.10
2018-03-04T20:34:35.513Z,73.40
2018-03-04T20:37:03.381Z,72.80
2018-03-04T20:39:31.195Z,73.00
2018-03-04T20:41:59.800Z,73.20
2018-03-04T20:44:27.629Z,73.10
2018-03-04T20:46:55.997Z,73.70
2018-03-04T20:49:23.627Z,73.60
2018-03-04T20:51:51.209Z,73.60
2018-03-04T20:54:18.862Z,73.60
2018-03-04T20:56:47.445Z,73.30
2018-03-04T20:59:15.038Z,73.30
2018-03-04T21:01:43.427Z,73.70
2018-03-04T21:04:11.793Z,74.00
2018-03-04T21:06:40.234Z,74.20
2018-03-04T21:09:07.885Z,74.10
2018-03-04T21:11:35.539Z,74.00
2018-03-04T21:14:03.131Z,74.10
2018-03-04T21:16:30.747Z,74.40
2018-03-04T21:18:58.907Z,74.30
2018-03-04T21:21:26.502Z,74.50
2018-03-04T21:23:54.110Z,75.30
2018-03-04T21:26:22.468Z,75.50
2018-03-04T21:28:50.113Z,75.50
2018-03-04T21:31:17.707Z,75.80
2018-03-04T21:33:46.060Z,75.80
2018-03-04T21:36:13.733Z,75.80
2018-03-04T21:38:41.333Z,76.10
2018-03-04T21:41:08.961Z,76.00
2018-03-04T21:43:37.667Z,76.10
2018-03-04T21:46:05.342Z,76.00
2018-03-04T21:48:32.987Z,76.20
2018-03-04T21:51:01.354Z,76.40
2018-03-04T21:53:29.759Z,76.60
2018-03-04T21:55:57.344Z,76.60
2018-03-04T21:58:24.949Z,76.60
2018-03-04T22:00:53.332Z,76.70
2018-03-04T22:03:21.777Z,76.50
2018-03-04T22:05:49.392Z,76.50
2018-03-04T22:08:17.185Z,77.30
2018-03-04T22:10:44.827Z,77.40
2018-03-04T22:13:13.860Z,77.20
2018-03-04T22:15:42.578Z,76.80
2018-03-04T22:18:11.159Z,77.00
2018-03-04T22:20:39.511Z,76.90
2018-03-04T22:23:07.715Z,76.90
2018-03-04T22:25:35.394Z,77.00
2018-03-04T22:28:03.036Z,77.20
2018-03-04T22:30:31.391Z,77.00
2018-03-04T22:32:58.996Z,77.10
2018-03-04T22:35:26.631Z,77.30
2018-03-04T22:37:54.248Z,77.10
2018-03-04T22:40:22.849Z,77.40
2018-03-04T22:42:50.426Z,77.80
2018-03-04T22:45:18.883Z,78.00
2018-03-04T22:47:46.601Z,78.00
2018-03-04T22:50:14.204Z,78.20
2018-03-04T22:52:41.823Z,78.10
2018-03-04T22:55:10.115Z,78.40
2018-03-04T22:57:37.731Z,78.60
2018-03-04T23:00:06.109Z,78.50
2018-03-04T23:02:34.506Z,78.50
2018-03-04T23:05:02.339Z,78.30
2018-03-04T23:07:29.923Z,78.60
2018-03-04T23:09:58.595Z,78.90
2018-03-04T23:12:27.066Z,79.00
2018-03-04T23:14:54.941Z,78.90
2018-03-04T23:17:23.552Z,79.10
2018-03-04T23:19:51.168Z,79.10
2018-03-04T23:22:18.919Z,79.20
2018-03-04T23:24:46.561Z,79.40
2018-03-04T23:27:14.316Z,79.40
2018-03-04T23:29:41.939Z,79.60
2018-03-04T23:32:10.587Z,79.60
2018-03-04T23:34:38.171Z,79.60
2018-03-04T23:37:06.683Z,79.70
2018-03-04T23:39:34.267Z,79.70
2018-03-04T23:42:01.911Z,79.70
2018-03-04T23:44:29.496Z,79.80
2018-03-04T23:46:57.118Z,80.00
2018-03-04T23:49:24.758Z,80.00
2018-03-04T23:51:53.140Z,79.80
2018-03-04T23:54:21.516Z,79.70
2018-03-04T23:56:49.892Z,80.10
2018-03-04T23:59:18.277Z,79.90
